BOJONS - RIERA MAJOR (Osona)





Hora UTC 21:50
Temperatura 22.0 ºC
Humedad 77.3 %
Presión 0.0 hPa
Pluja 0.0 mm
Radiación solar 0.0 W/m²

Datos diarios 2024-07-24



Hora UTC (invierno +1h; verano +2h)
Temperatura (ºC) Humedad (%) Presión (hPa) Precipitación (mm) Radiación solar (W/m²)
Hora UTC Aire Humedad Presión Intent. máx 5 min. Rad. Sol.
00:05 19.3 83.8 0.0 0.0 0.0
00:10 19.3 84.3 0.0 0.0 0.0
00:15 19.4 84.0 0.0 0.0 0.0
00:20 19.4 83.4 0.0 0.0 0.0
00:25 19.4 83.0 0.0 0.0 0.0
00:30 19.3 82.9 0.0 0.0 0.0
00:35 19.2 82.6 0.0 0.0 0.0
00:40 18.8 82.9 0.0 0.0 0.0
00:45 18.3 84.9 0.0 0.0 0.0
00:50 18.2 85.6 0.0 0.0 0.0
00:55 18.2 86.2 0.0 0.0 0.0
01:00 18.1 85.8 0.0 0.0 0.0
01:05 18.2 86.0 0.0 0.0 0.0
01:10 18.2 86.2 0.0 0.0 0.0
01:15 18.2 85.7 0.0 0.0 0.0
01:20 18.0 85.9 0.0 0.0 0.0
01:25 18.1 86.7 0.0 0.0 0.0
01:30 18.2 85.9 0.0 0.0 0.0
01:35 18.2 85.1 0.0 0.0 0.0
01:40 18.0 85.3 0.0 0.0 0.0
01:45 17.9 85.3 0.0 0.0 0.0
01:50 17.8 86.0 0.0 0.0 0.0
01:55 17.9 86.4 0.0 0.0 0.0
02:00 18.0 85.7 0.0 0.0 0.0
02:05 17.4 85.5 0.0 0.0 0.0
02:10 17.1 86.8 0.0 0.0 0.0
02:15 17.2 87.8 0.0 0.0 0.0
02:20 17.3 87.7 0.0 0.0 0.0
02:25 17.3 87.1 0.0 0.0 0.0
02:30 17.3 87.1 0.0 0.0 0.0
02:35 17.3 87.2 0.0 0.0 0.0
02:40 17.5 87.2 0.0 0.0 0.0
02:45 17.5 86.2 0.0 0.0 0.0
02:50 17.5 85.7 0.0 0.0 0.0
02:55 17.6 86.1 0.0 0.0 0.0
03:00 17.6 85.3 0.0 0.0 0.0
03:05 17.3 85.0 0.0 0.0 0.0
03:10 17.0 86.2 0.0 0.0 0.0
03:15 17.2 87.2 0.0 0.0 0.0
03:20 17.3 86.2 0.0 0.0 0.0
03:25 17.4 85.6 0.0 0.0 0.0
03:30 17.1 84.8 0.0 0.0 0.0
03:35 16.9 85.8 0.0 0.0 0.0
03:40 17.1 86.1 0.0 0.0 0.0
03:45 16.6 85.1 0.0 0.0 0.0
03:50 16.4 86.7 0.0 0.0 0.0
03:55 16.3 87.1 0.0 0.0 0.0
04:00 16.3 87.6 0.0 0.0 0.0
04:05 16.2 87.5 0.0 0.0 0.0
04:10 16.1 87.9 0.0 0.0 0.0
04:15 16.2 88.2 0.0 0.0 0.0
04:20 16.2 88.0 0.0 0.0 0.0
04:25 16.4 88.0 0.0 0.0 0.0
04:30 16.4 87.3 0.0 0.0 0.0
04:35 16.6 86.8 0.0 0.0 0.0
04:40 16.5 85.8 0.0 0.0 0.0
04:45 16.4 86.4 0.0 0.0 0.0
04:50 16.5 86.2 0.0 0.0 0.0
04:55 16.3 86.2 0.0 0.0 0.0
05:00 16.3 86.2 0.0 0.0 0.0
05:05 15.9 86.6 0.0 0.0 0.0
05:10 16.1 88.0 0.0 0.0 0.0
05:15 16.3 86.9 0.0 0.0 0.0
05:20 16.0 86.9 0.0 0.0 0.0
05:25 16.3 87.4 0.0 0.0 0.0
05:30 16.5 86.8 0.0 0.0 0.0
05:35 16.7 86.2 0.0 0.0 0.0
05:40 16.6 85.4 0.0 0.0 0.0
05:45 16.3 86.3 0.0 0.0 0.0
05:50 16.5 87.5 0.0 0.0 0.0
05:55 16.7 87.1 0.0 0.0 0.0
06:00 17.1 86.8 0.0 0.0 0.0
06:05 17.5 85.9 0.0 0.0 0.0
06:10 17.8 83.9 0.0 0.0 0.0
06:15 17.7 84.5 0.0 0.0 0.0
06:20 18.4 83.9 0.0 0.0 0.0
06:25 19.6 80.3 0.0 0.0 0.0
06:30 20.5 76.8 0.0 0.0 0.0
06:35 21.1 74.4 0.0 0.0 0.0
06:40 21.3 74.9 0.0 0.0 0.0
06:45 22.3 72.2 0.0 0.0 0.0
06:50 22.2 71.4 0.0 0.0 0.0
06:55 22.0 72.7 0.0 0.0 0.0
07:00 21.7 74.3 0.0 0.0 0.0
07:05 21.9 74.3 0.0 0.0 0.0
07:10 22.7 72.5 0.0 0.0 0.0
07:15 23.0 72.3 0.0 0.0 0.0
07:20 23.1 71.4 0.0 0.0 0.0
07:25 23.7 69.8 0.0 0.0 0.0
07:30 24.4 67.8 0.0 0.0 0.0
07:35 24.5 67.8 0.0 0.0 0.0
07:40 24.8 67.1 0.0 0.0 0.0
07:45 25.1 65.5 0.0 0.0 0.0
07:50 25.7 64.9 0.0 0.0 0.0
07:55 26.2 62.9 0.0 0.0 0.0
08:00 26.6 59.0 0.0 0.0 0.0
08:05 26.8 57.2 0.0 0.0 0.0
08:10 27.5 54.2 0.0 0.0 0.0
08:15 27.3 54.2 0.0 0.0 0.0
08:20 27.2 55.3 0.0 0.0 0.0
08:25 27.3 54.9 0.0 0.0 0.0
08:30 27.6 53.8 0.0 0.0 0.0
08:35 28.3 51.1 0.0 0.0 0.0
08:40 28.5 50.4 0.0 0.0 0.0
08:45 29.1 48.3 0.0 0.0 0.0
08:50 29.8 47.3 0.0 0.0 0.0
08:55 30.1 45.4 0.0 0.0 0.0
09:00 30.6 43.7 0.0 0.0 0.0
09:05 31.4 42.7 0.0 0.0 0.0
09:10 32.2 39.9 0.0 0.0 0.0
09:15 31.8 40.8 0.0 0.0 0.0
09:20 33.2 37.5 0.0 0.0 0.0
09:25 33.6 36.3 0.0 0.0 0.0
09:30 34.4 34.3 0.0 0.0 0.0
09:35 35.0 33.6 0.0 0.0 0.0
09:40 34.8 33.5 0.0 0.0 0.0
09:45 34.5 33.2 0.0 0.0 0.0
09:50 33.8 33.8 0.0 0.0 0.0
09:55 32.4 36.8 0.0 0.0 0.0
10:00 33.4 35.1 0.0 0.0 0.0
10:05 34.4 34.0 0.0 0.0 0.0
10:10 34.4 33.0 0.0 0.0 0.0
10:15 34.3 33.6 0.0 0.0 0.0
10:20 33.5 33.7 0.0 0.0 0.0
10:25 33.8 34.2 0.0 0.0 0.0
10:30 34.6 33.3 0.0 0.0 0.0
10:35 34.1 32.6 0.0 0.0 0.0
10:40 34.1 33.4 0.0 0.0 0.0
10:45 34.6 33.6 0.0 0.0 0.0
10:50 33.8 33.2 0.0 0.0 0.0
10:55 33.8 32.8 0.0 0.0 0.0
11:00 33.7 32.7 0.0 0.0 0.0
11:05 34.2 33.5 0.0 0.0 0.0
11:10 33.6 32.5 0.0 0.0 0.0
11:15 33.7 34.4 0.0 0.0 0.0
11:20 34.4 32.2 0.0 0.0 0.0
11:25 35.0 31.6 0.0 0.0 0.0
11:30 35.6 31.0 0.0 0.0 0.0
11:35 35.2 31.0 0.0 0.0 0.0
11:40 35.6 31.4 0.0 0.0 0.0
11:45 35.9 29.9 0.0 0.0 0.0
11:50 35.6 30.7 0.0 0.0 0.0
11:55 34.6 31.7 0.0 0.0 0.0
12:00 35.0 32.0 0.0 0.0 0.0
12:05 35.7 30.5 0.0 0.0 0.0
12:10 35.5 30.0 0.0 0.0 0.0
12:15 33.9 31.6 0.0 0.0 0.0
12:20 33.5 32.4 0.0 0.0 0.0
12:25 32.9 32.8 0.0 0.0 0.0
12:30 34.1 32.2 0.0 0.0 0.0
12:35 35.3 31.1 0.0 0.0 0.0
12:40 35.7 30.3 0.0 0.0 0.0
12:45 35.7 29.8 0.0 0.0 0.0
12:50 35.7 30.3 0.0 0.0 0.0
12:55 35.5 29.5 0.0 0.0 0.0
13:00 35.0 30.4 0.0 0.0 0.0
13:05 35.8 30.2 0.0 0.0 0.0
13:10 35.5 33.5 0.0 0.0 0.0
13:15 32.8 44.8 0.0 0.0 0.0
13:20 31.8 46.6 0.0 0.0 0.0
13:25 30.8 48.7 0.0 0.0 0.0
13:30 30.1 50.9 0.0 0.0 0.0
13:35 30.0 51.7 0.0 0.0 0.0
13:40 30.7 49.4 0.0 0.0 0.0
13:45 31.1 46.9 0.0 0.0 0.0
13:50 31.7 46.4 0.0 0.0 0.0
13:55 31.8 46.3 0.0 0.0 0.0
14:00 31.7 46.3 0.0 0.0 0.0
14:05 31.3 46.7 0.0 0.0 0.0
14:10 30.7 46.6 0.0 0.0 0.0
14:15 30.9 46.5 0.0 0.0 0.0
14:20 31.4 45.9 0.0 0.0 0.0
14:25 31.7 44.4 0.0 0.0 0.0
14:30 31.7 43.6 0.0 0.0 0.0
14:35 31.3 43.6 0.0 0.0 0.0
14:40 30.9 43.8 0.0 0.0 0.0
14:45 31.0 43.5 0.0 0.0 0.0
14:50 30.9 43.0 0.0 0.0 0.0
14:55 31.0 42.9 0.0 0.0 0.0
15:00 31.0 43.4 0.0 0.0 0.0
15:05 31.2 42.9 0.0 0.0 0.0
15:10 31.2 43.5 0.0 0.0 0.0
15:15 30.9 44.4 0.0 0.0 0.0
15:20 31.0 44.6 0.0 0.0 0.0
15:25 30.7 45.2 0.0 0.0 0.0
15:30 30.6 46.0 0.0 0.0 0.0
15:35 30.5 45.8 0.0 0.0 0.0
15:40 30.6 45.6 0.0 0.0 0.0
15:45 30.4 45.7 0.0 0.0 0.0
15:50 30.7 45.9 0.0 0.0 0.0
15:55 30.7 46.8 0.0 0.0 0.0
16:00 30.7 47.0 0.0 0.0 0.0
16:05 30.4 48.1 0.0 0.0 0.0
16:10 30.3 48.6 0.0 0.0 0.0
16:15 30.3 48.3 0.0 0.0 0.0
16:20 30.3 48.0 0.0 0.0 0.0
16:25 30.3 48.2 0.0 0.0 0.0
16:30 30.2 49.0 0.0 0.0 0.0
16:35 30.2 50.2 0.0 0.0 0.0
16:40 30.0 50.2 0.0 0.0 0.0
16:45 29.9 50.6 0.0 0.0 0.0
16:50 29.8 51.2 0.0 0.0 0.0
16:55 29.6 51.9 0.0 0.0 0.0
17:00 29.5 52.4 0.0 0.0 0.0
17:05 29.3 53.5 0.0 0.0 0.0
17:10 29.2 53.8 0.0 0.0 0.0
17:15 29.2 54.0 0.0 0.0 0.0
17:20 29.1 54.4 0.0 0.0 0.0
17:25 29.0 55.1 0.0 0.0 0.0
17:30 28.9 55.4 0.0 0.0 0.0
17:35 28.9 55.5 0.0 0.0 0.0
17:40 28.8 56.3 0.0 0.0 0.0
17:45 28.6 57.8 0.0 0.0 0.0
17:50 28.6 56.7 0.0 0.0 0.0
17:55 28.5 57.0 0.0 0.0 0.0
18:00 28.3 58.3 0.0 0.0 0.0
18:05 28.2 57.7 0.0 0.0 0.0
18:10 28.1 58.0 0.0 0.0 0.0
18:15 27.8 59.3 0.0 0.0 0.0
18:20 27.8 58.9 0.0 0.0 0.0
18:25 27.6 60.1 0.0 0.0 0.0
18:30 27.5 59.8 0.0 0.0 0.0
18:35 27.2 61.8 0.0 0.0 0.0
18:40 26.9 63.1 0.0 0.0 0.0
18:45 26.8 63.0 0.0 0.0 0.0
18:50 26.6 64.5 0.0 0.0 0.0
18:55 26.3 66.0 0.0 0.0 0.0
19:00 25.8 68.0 0.0 0.0 0.0
19:05 25.6 69.4 0.0 0.0 0.0
19:10 25.4 69.9 0.0 0.0 0.0
19:15 25.0 71.5 0.0 0.0 0.0
19:20 24.8 72.3 0.0 0.0 0.0
19:25 24.6 72.6 0.0 0.0 0.0
19:30 24.4 72.9 0.0 0.0 0.0
19:35 24.4 73.0 0.0 0.0 0.0
19:40 24.3 72.7 0.0 0.0 0.0
19:45 24.3 73.3 0.0 0.0 0.0
19:50 24.1 73.5 0.0 0.0 0.0
19:55 23.9 74.2 0.0 0.0 0.0
20:00 23.7 75.1 0.0 0.0 0.0
20:05 23.6 75.0 0.0 0.0 0.0
20:10 23.4 75.6 0.0 0.0 0.0
20:15 23.3 75.7 0.0 0.0 0.0
20:20 23.0 76.7 0.0 0.0 0.0
20:25 22.9 77.3 0.0 0.0 0.0
20:30 22.8 77.3 0.0 0.0 0.0
20:35 22.7 77.4 0.0 0.0 0.0
20:40 22.5 77.9 0.0 0.0 0.0
20:45 22.5 78.4 0.0 0.0 0.0
20:50 22.3 78.9 0.0 0.0 0.0
20:55 22.2 78.8 0.0 0.0 0.0
21:00 22.3 78.2 0.0 0.0 0.0
21:05 22.2 78.3 0.0 0.0 0.0
21:10 22.2 77.6 0.0 0.0 0.0
21:15 21.9 78.1 0.0 0.0 0.0
21:20 21.7 78.8 0.0 0.0 0.0
21:25 21.8 78.8 0.0 0.0 0.0
21:30 21.7 79.3 0.0 0.0 0.0
21:35 21.5 79.4 0.0 0.0 0.0
21:40 21.6 79.7 0.0 0.0 0.0
21:45 21.9 78.6 0.0 0.0 0.0
21:50 22.0 77.3 0.0 0.0 0.0
Máxima 36.1 88.2 0.0 0.0 0.0
Mínima 15.8 29.5 0.0
Total 0.0